sensor_id;sensor_type;location;lat;lon;timestamp;P1;durP1;ratioP1;P2;durP2;ratioP2
52047;SDS011;46904;49.438;8.752;2022-09-19T00:02:30;0.30;;;0.30;;
52047;SDS011;46904;49.438;8.752;2022-09-19T00:05:20;1.52;;;0.52;;
52047;SDS011;46904;49.438;8.752;2022-09-19T00:08:10;0.60;;;0.60;;
52047;SDS011;46904;49.438;8.752;2022-09-19T00:11:01;0.90;;;0.80;;
52047;SDS011;46904;49.438;8.752;2022-09-19T00:13:53;1.00;;;0.90;;
52047;SDS011;46904;49.438;8.752;2022-09-19T00:16:44;1.00;;;0.80;;
52047;SDS011;46904;49.438;8.752;2022-09-19T00:19:36;1.88;;;1.10;;
52047;SDS011;46904;49.438;8.752;2022-09-19T00:22:26;1.08;;;0.98;;
52047;SDS011;46904;49.438;8.752;2022-09-19T00:25:16;0.82;;;0.80;;
52047;SDS011;46904;49.438;8.752;2022-09-19T00:28:06;1.02;;;0.93;;
52047;SDS011;46904;49.438;8.752;2022-09-19T00:30:56;1.52;;;1.40;;
52047;SDS011;46904;49.438;8.752;2022-09-19T00:33:47;3.22;;;2.05;;
52047;SDS011;46904;49.438;8.752;2022-09-19T00:36:38;2.63;;;2.40;;
52047;SDS011;46904;49.438;8.752;2022-09-19T00:39:29;2.08;;;1.88;;
52047;SDS011;46904;49.438;8.752;2022-09-19T00:42:22;2.20;;;2.00;;
52047;SDS011;46904;49.438;8.752;2022-09-19T00:45:14;3.72;;;1.80;;
52047;SDS011;46904;49.438;8.752;2022-09-19T00:48:04;2.97;;;1.58;;
52047;SDS011;46904;49.438;8.752;2022-09-19T00:50:54;2.65;;;1.60;;
52047;SDS011;46904;49.438;8.752;2022-09-19T00:53:45;2.05;;;1.70;;
52047;SDS011;46904;49.438;8.752;2022-09-19T00:56:37;2.47;;;1.50;;
52047;SDS011;46904;49.438;8.752;2022-09-19T00:59:31;1.73;;;1.50;;
52047;SDS011;46904;49.438;8.752;2022-09-19T01:02:23;2.40;;;1.40;;
52047;SDS011;46904;49.438;8.752;2022-09-19T01:05:13;2.22;;;1.40;;
52047;SDS011;46904;49.438;8.752;2022-09-19T01:17:00;1.48;;;1.38;;
52047;SDS011;46904;49.438;8.752;2022-09-19T01:29:17;1.20;;;0.77;;
52047;SDS011;46904;49.438;8.752;2022-09-19T01:32:11;2.17;;;0.82;;
52047;SDS011;46904;49.438;8.752;2022-09-19T01:35:06;0.77;;;0.77;;
52047;SDS011;46904;49.438;8.752;2022-09-19T01:38:03;1.05;;;0.80;;
52047;SDS011;46904;49.438;8.752;2022-09-19T01:40:55;1.88;;;0.68;;
52047;SDS011;46904;49.438;8.752;2022-09-19T01:43:47;0.57;;;0.55;;
52047;SDS011;46904;49.438;8.752;2022-09-19T01:46:42;0.90;;;0.57;;
52047;SDS011;46904;49.438;8.752;2022-09-19T01:58:12;0.98;;;0.50;;
52047;SDS011;46904;49.438;8.752;2022-09-19T02:01:14;1.90;;;0.70;;
52047;SDS011;46904;49.438;8.752;2022-09-19T02:04:15;1.73;;;0.60;;
52047;SDS011;46904;49.438;8.752;2022-09-19T02:07:10;0.88;;;0.60;;
52047;SDS011;46904;49.438;8.752;2022-09-19T02:10:05;2.08;;;0.70;;
52047;SDS011;46904;49.438;8.752;2022-09-19T02:12:57;2.17;;;0.60;;
52047;SDS011;46904;49.438;8.752;2022-09-19T02:15:50;1.02;;;0.60;;
52047;SDS011;46904;49.438;8.752;2022-09-19T02:18:45;0.88;;;0.60;;
52047;SDS011;46904;49.438;8.752;2022-09-19T02:21:38;1.25;;;0.60;;
52047;SDS011;46904;49.438;8.752;2022-09-19T02:24:32;0.95;;;0.50;;
52047;SDS011;46904;49.438;8.752;2022-09-19T02:27:23;0.98;;;0.60;;
52047;SDS011;46904;49.438;8.752;2022-09-19T02:30:14;0.95;;;0.60;;
52047;SDS011;46904;49.438;8.752;2022-09-19T02:33:04;0.50;;;0.50;;
52047;SDS011;46904;49.438;8.752;2022-09-19T02:38:51;2.33;;;0.88;;
52047;SDS011;46904;49.438;8.752;2022-09-19T02:42:04;1.17;;;0.85;;
52047;SDS011;46904;49.438;8.752;2022-09-19T02:51:01;0.57;;;0.57;;
52047;SDS011;46904;49.438;8.752;2022-09-19T02:53:49;0.60;;;0.60;;
52047;SDS011;46904;49.438;8.752;2022-09-19T02:56:42;0.93;;;0.50;;
52047;SDS011;46904;49.438;8.752;2022-09-19T02:59:34;0.50;;;0.50;;
52047;SDS011;46904;49.438;8.752;2022-09-19T03:02:31;0.60;;;0.60;;
52047;SDS011;46904;49.438;8.752;2022-09-19T03:05:23;1.05;;;0.63;;
52047;SDS011;46904;49.438;8.752;2022-09-19T03:08:14;1.00;;;0.63;;
52047;SDS011;46904;49.438;8.752;2022-09-19T03:11:09;2.08;;;1.17;;
52047;SDS011;46904;49.438;8.752;2022-09-19T03:14:00;1.92;;;0.60;;
52047;SDS011;46904;49.438;8.752;2022-09-19T03:16:52;0.70;;;0.55;;
52047;SDS011;46904;49.438;8.752;2022-09-19T03:19:47;0.50;;;0.50;;
52047;SDS011;46904;49.438;8.752;2022-09-19T03:22:40;2.25;;;0.60;;
52047;SDS011;46904;49.438;8.752;2022-09-19T03:25:30;1.10;;;0.68;;
52047;SDS011;46904;49.438;8.752;2022-09-19T03:28:20;2.45;;;0.70;;
52047;SDS011;46904;49.438;8.752;2022-09-19T03:31:10;0.95;;;0.63;;
52047;SDS011;46904;49.438;8.752;2022-09-19T03:34:00;0.65;;;0.60;;
52047;SDS011;46904;49.438;8.752;2022-09-19T03:36:50;0.60;;;0.60;;
52047;SDS011;46904;49.438;8.752;2022-09-19T03:39:41;1.92;;;0.75;;
52047;SDS011;46904;49.438;8.752;2022-09-19T03:42:32;2.60;;;0.80;;
52047;SDS011;46904;49.438;8.752;2022-09-19T03:45:22;1.30;;;0.82;;
52047;SDS011;46904;49.438;8.752;2022-09-19T03:48:12;1.50;;;0.90;;
52047;SDS011;46904;49.438;8.752;2022-09-19T03:51:03;0.88;;;0.75;;
52047;SDS011;46904;49.438;8.752;2022-09-19T03:53:56;1.55;;;1.27;;
52047;SDS011;46904;49.438;8.752;2022-09-19T03:56:46;0.90;;;0.80;;
52047;SDS011;46904;49.438;8.752;2022-09-19T03:59:37;0.77;;;0.73;;
52047;SDS011;46904;49.438;8.752;2022-09-19T04:02:28;1.60;;;1.00;;
52047;SDS011;46904;49.438;8.752;2022-09-19T04:05:18;2.83;;;0.98;;
52047;SDS011;46904;49.438;8.752;2022-09-19T04:08:08;1.00;;;0.82;;
52047;SDS011;46904;49.438;8.752;2022-09-19T04:10:59;3.08;;;1.00;;
52047;SDS011;46904;49.438;8.752;2022-09-19T04:13:49;1.65;;;0.98;;
52047;SDS011;46904;49.438;8.752;2022-09-19T04:16:40;3.42;;;0.70;;
52047;SDS011;46904;49.438;8.752;2022-09-19T04:19:30;2.15;;;0.90;;
52047;SDS011;46904;49.438;8.752;2022-09-19T04:22:21;1.45;;;0.80;;
52047;SDS011;46904;49.438;8.752;2022-09-19T04:25:12;1.75;;;0.80;;
52047;SDS011;46904;49.438;8.752;2022-09-19T04:28:03;1.15;;;0.80;;
52047;SDS011;46904;49.438;8.752;2022-09-19T04:30:54;1.00;;;0.75;;
52047;SDS011;46904;49.438;8.752;2022-09-19T04:33:45;1.52;;;0.93;;
52047;SDS011;46904;49.438;8.752;2022-09-19T04:36:35;0.80;;;0.80;;
52047;SDS011;46904;49.438;8.752;2022-09-19T04:39:25;2.20;;;0.82;;
52047;SDS011;46904;49.438;8.752;2022-09-19T04:42:17;2.00;;;0.73;;
52047;SDS011;46904;49.438;8.752;2022-09-19T04:45:07;1.63;;;0.90;;
52047;SDS011;46904;49.438;8.752;2022-09-19T04:47:57;3.15;;;0.80;;
52047;SDS011;46904;49.438;8.752;2022-09-19T04:50:49;1.75;;;1.45;;
52047;SDS011;46904;49.438;8.752;2022-09-19T04:53:39;3.63;;;1.17;;
52047;SDS011;46904;49.438;8.752;2022-09-19T04:56:30;1.88;;;0.80;;
52047;SDS011;46904;49.438;8.752;2022-09-19T04:59:21;2.33;;;1.02;;
52047;SDS011;46904;49.438;8.752;2022-09-19T05:02:12;1.15;;;0.85;;
52047;SDS011;46904;49.438;8.752;2022-09-19T05:05:04;1.35;;;1.05;;
52047;SDS011;46904;49.438;8.752;2022-09-19T05:07:54;3.33;;;1.20;;
52047;SDS011;46904;49.438;8.752;2022-09-19T05:10:46;1.33;;;0.90;;
52047;SDS011;46904;49.438;8.752;2022-09-19T05:13:37;1.85;;;0.95;;
52047;SDS011;46904;49.438;8.752;2022-09-19T05:16:27;1.27;;;0.80;;
52047;SDS011;46904;49.438;8.752;2022-09-19T05:19:17;2.20;;;1.00;;
52047;SDS011;46904;49.438;8.752;2022-09-19T05:22:07;2.20;;;1.20;;
52047;SDS011;46904;49.438;8.752;2022-09-19T05:24:57;3.20;;;1.17;;
52047;SDS011;46904;49.438;8.752;2022-09-19T05:27:47;1.50;;;0.90;;
52047;SDS011;46904;49.438;8.752;2022-09-19T05:30:45;2.63;;;0.90;;
52047;SDS011;46904;49.438;8.752;2022-09-19T05:33:35;1.13;;;0.90;;
52047;SDS011;46904;49.438;8.752;2022-09-19T05:36:25;2.97;;;1.20;;
52047;SDS011;46904;49.438;8.752;2022-09-19T05:39:16;2.92;;;1.35;;
52047;SDS011;46904;49.438;8.752;2022-09-19T05:42:07;3.50;;;1.10;;
52047;SDS011;46904;49.438;8.752;2022-09-19T05:44:57;2.88;;;1.25;;
52047;SDS011;46904;49.438;8.752;2022-09-19T05:47:48;1.85;;;1.10;;
52047;SDS011;46904;49.438;8.752;2022-09-19T05:50:41;2.55;;;1.15;;
52047;SDS011;46904;49.438;8.752;2022-09-19T05:53:31;3.03;;;1.55;;
52047;SDS011;46904;49.438;8.752;2022-09-19T05:56:22;2.55;;;1.40;;
52047;SDS011;46904;49.438;8.752;2022-09-19T05:59:12;2.15;;;1.20;;
52047;SDS011;46904;49.438;8.752;2022-09-19T06:02:02;1.48;;;1.10;;
52047;SDS011;46904;49.438;8.752;2022-09-19T06:04:54;2.13;;;1.40;;
52047;SDS011;46904;49.438;8.752;2022-09-19T06:07:44;2.15;;;1.40;;
52047;SDS011;46904;49.438;8.752;2022-09-19T06:10:36;3.20;;;2.05;;
52047;SDS011;46904;49.438;8.752;2022-09-19T06:13:27;3.70;;;1.60;;
52047;SDS011;46904;49.438;8.752;2022-09-19T06:16:17;2.47;;;1.30;;
52047;SDS011;46904;49.438;8.752;2022-09-19T06:19:07;3.10;;;1.10;;
52047;SDS011;46904;49.438;8.752;2022-09-19T06:21:57;1.98;;;1.10;;
52047;SDS011;46904;49.438;8.752;2022-09-19T06:24:48;1.70;;;0.98;;
52047;SDS011;46904;49.438;8.752;2022-09-19T06:27:39;2.45;;;1.10;;
52047;SDS011;46904;49.438;8.752;2022-09-19T06:30:30;2.83;;;1.23;;
52047;SDS011;46904;49.438;8.752;2022-09-19T06:33:20;3.92;;;1.40;;
52047;SDS011;46904;49.438;8.752;2022-09-19T06:36:11;2.33;;;1.35;;
52047;SDS011;46904;49.438;8.752;2022-09-19T06:39:02;3.20;;;1.08;;
52047;SDS011;46904;49.438;8.752;2022-09-19T06:41:54;3.28;;;1.40;;
52047;SDS011;46904;49.438;8.752;2022-09-19T06:44:44;4.53;;;1.88;;
52047;SDS011;46904;49.438;8.752;2022-09-19T06:47:34;3.38;;;1.52;;
52047;SDS011;46904;49.438;8.752;2022-09-19T06:50:25;3.65;;;1.80;;
52047;SDS011;46904;49.438;8.752;2022-09-19T06:53:16;3.72;;;1.60;;
52047;SDS011;46904;49.438;8.752;2022-09-19T06:56:06;4.03;;;1.70;;
52047;SDS011;46904;49.438;8.752;2022-09-19T06:58:57;2.30;;;2.00;;
52047;SDS011;46904;49.438;8.752;2022-09-19T07:01:48;2.92;;;1.80;;
52047;SDS011;46904;49.438;8.752;2022-09-19T07:04:39;4.63;;;2.15;;
52047;SDS011;46904;49.438;8.752;2022-09-19T07:07:29;3.88;;;2.10;;
52047;SDS011;46904;49.438;8.752;2022-09-19T07:10:20;3.35;;;1.70;;
52047;SDS011;46904;49.438;8.752;2022-09-19T07:13:11;5.18;;;1.85;;
52047;SDS011;46904;49.438;8.752;2022-09-19T07:16:02;1.67;;;1.27;;
52047;SDS011;46904;49.438;8.752;2022-09-19T07:18:53;2.55;;;1.50;;
52047;SDS011;46904;49.438;8.752;2022-09-19T07:21:44;3.50;;;1.33;;
52047;SDS011;46904;49.438;8.752;2022-09-19T07:24:34;1.77;;;1.40;;
52047;SDS011;46904;49.438;8.752;2022-09-19T07:27:24;5.32;;;1.65;;
52047;SDS011;46904;49.438;8.752;2022-09-19T07:30:14;3.78;;;1.35;;
52047;SDS011;46904;49.438;8.752;2022-09-19T07:33:06;3.83;;;1.42;;
52047;SDS011;46904;49.438;8.752;2022-09-19T07:35:56;4.25;;;1.27;;
52047;SDS011;46904;49.438;8.752;2022-09-19T07:38:47;3.22;;;1.98;;
52047;SDS011;46904;49.438;8.752;2022-09-19T07:41:38;2.35;;;1.70;;
52047;SDS011;46904;49.438;8.752;2022-09-19T07:44:28;3.58;;;1.42;;
52047;SDS011;46904;49.438;8.752;2022-09-19T07:47:18;2.88;;;1.40;;
52047;SDS011;46904;49.438;8.752;2022-09-19T07:50:10;5.78;;;1.90;;
52047;SDS011;46904;49.438;8.752;2022-09-19T07:53:02;4.95;;;1.42;;
52047;SDS011;46904;49.438;8.752;2022-09-19T07:55:54;4.80;;;1.73;;
52047;SDS011;46904;49.438;8.752;2022-09-19T07:58:45;4.70;;;2.00;;
52047;SDS011;46904;49.438;8.752;2022-09-19T08:01:36;5.53;;;1.70;;
52047;SDS011;46904;49.438;8.752;2022-09-19T08:04:27;1.98;;;1.50;;
52047;SDS011;46904;49.438;8.752;2022-09-19T08:07:17;3.13;;;1.70;;
52047;SDS011;46904;49.438;8.752;2022-09-19T08:10:07;6.53;;;1.80;;
52047;SDS011;46904;49.438;8.752;2022-09-19T08:13:04;5.53;;;1.90;;
52047;SDS011;46904;49.438;8.752;2022-09-19T08:15:54;3.53;;;1.50;;
52047;SDS011;46904;49.438;8.752;2022-09-19T08:18:44;2.50;;;1.33;;
52047;SDS011;46904;49.438;8.752;2022-09-19T08:21:35;2.25;;;1.38;;
52047;SDS011;46904;49.438;8.752;2022-09-19T08:24:26;6.05;;;1.60;;
52047;SDS011;46904;49.438;8.752;2022-09-19T08:27:16;3.08;;;1.55;;
52047;SDS011;46904;49.438;8.752;2022-09-19T08:30:06;3.88;;;1.55;;
52047;SDS011;46904;49.438;8.752;2022-09-19T08:32:57;4.40;;;1.45;;
52047;SDS011;46904;49.438;8.752;2022-09-19T08:35:47;2.90;;;1.90;;
52047;SDS011;46904;49.438;8.752;2022-09-19T08:38:38;4.50;;;1.23;;
52047;SDS011;46904;49.438;8.752;2022-09-19T08:47:24;4.15;;;1.67;;
52047;SDS011;46904;49.438;8.752;2022-09-19T08:50:18;3.92;;;1.77;;
52047;SDS011;46904;49.438;8.752;2022-09-19T08:53:12;5.00;;;1.70;;
52047;SDS011;46904;49.438;8.752;2022-09-19T08:56:03;4.07;;;2.00;;
52047;SDS011;46904;49.438;8.752;2022-09-19T08:59:00;4.38;;;1.40;;
52047;SDS011;46904;49.438;8.752;2022-09-19T09:01:57;3.25;;;1.50;;
52047;SDS011;46904;49.438;8.752;2022-09-19T09:04:49;2.55;;;1.52;;
52047;SDS011;46904;49.438;8.752;2022-09-19T09:23:02;3.65;;;1.80;;
52047;SDS011;46904;49.438;8.752;2022-09-19T09:25:56;2.50;;;1.70;;
52047;SDS011;46904;49.438;8.752;2022-09-19T09:28:52;3.03;;;1.80;;
52047;SDS011;46904;49.438;8.752;2022-09-19T09:31:44;4.25;;;1.75;;
52047;SDS011;46904;49.438;8.752;2022-09-19T09:34:49;5.68;;;1.85;;
52047;SDS011;46904;49.438;8.752;2022-09-19T09:37:41;3.33;;;1.65;;
52047;SDS011;46904;49.438;8.752;2022-09-19T09:43:43;3.75;;;1.92;;
52047;SDS011;46904;49.438;8.752;2022-09-19T09:49:37;2.72;;;1.67;;
52047;SDS011;46904;49.438;8.752;2022-09-19T10:07:28;3.65;;;1.95;;
52047;SDS011;46904;49.438;8.752;2022-09-19T10:10:22;1.77;;;1.35;;
52047;SDS011;46904;49.438;8.752;2022-09-19T10:13:16;3.35;;;1.10;;
52047;SDS011;46904;49.438;8.752;2022-09-19T10:16:08;2.85;;;1.35;;
52047;SDS011;46904;49.438;8.752;2022-09-19T10:19:08;6.20;;;1.77;;
52047;SDS011;46904;49.438;8.752;2022-09-19T10:22:04;3.92;;;1.50;;
52047;SDS011;46904;49.438;8.752;2022-09-19T10:24:56;3.50;;;1.23;;
52047;SDS011;46904;49.438;8.752;2022-09-19T10:27:46;6.15;;;1.70;;
52047;SDS011;46904;49.438;8.752;2022-09-19T10:30:37;3.35;;;1.42;;
52047;SDS011;46904;49.438;8.752;2022-09-19T10:33:42;2.95;;;1.55;;
52047;SDS011;46904;49.438;8.752;2022-09-19T10:36:44;3.92;;;1.45;;
52047;SDS011;46904;49.438;8.752;2022-09-19T10:39:40;3.08;;;1.35;;
52047;SDS011;46904;49.438;8.752;2022-09-19T10:42:37;5.72;;;1.60;;
52047;SDS011;46904;49.438;8.752;2022-09-19T10:48:30;2.65;;;1.30;;
52047;SDS011;46904;49.438;8.752;2022-09-19T10:51:22;3.08;;;1.23;;
52047;SDS011;46904;49.438;8.752;2022-09-19T10:54:21;2.50;;;1.33;;
52047;SDS011;46904;49.438;8.752;2022-09-19T11:03:19;3.75;;;1.65;;
52047;SDS011;46904;49.438;8.752;2022-09-19T11:06:15;4.57;;;1.40;;
52047;SDS011;46904;49.438;8.752;2022-09-19T11:09:21;3.42;;;1.30;;
52047;SDS011;46904;49.438;8.752;2022-09-19T11:12:13;3.20;;;1.48;;
52047;SDS011;46904;49.438;8.752;2022-09-19T11:15:05;4.07;;;1.80;;
52047;SDS011;46904;49.438;8.752;2022-09-19T11:18:02;3.03;;;1.40;;
52047;SDS011;46904;49.438;8.752;2022-09-19T11:20:57;4.40;;;1.45;;
52047;SDS011;46904;49.438;8.752;2022-09-19T11:23:55;3.28;;;1.60;;
52047;SDS011;46904;49.438;8.752;2022-09-19T11:29:50;4.32;;;1.33;;
52047;SDS011;46904;49.438;8.752;2022-09-19T11:36:00;3.75;;;1.38;;
52047;SDS011;46904;49.438;8.752;2022-09-19T11:39:05;2.70;;;1.63;;
52047;SDS011;46904;49.438;8.752;2022-09-19T12:01:55;3.47;;;1.33;;
52047;SDS011;46904;49.438;8.752;2022-09-19T12:11:00;2.25;;;1.20;;
52047;SDS011;46904;49.438;8.752;2022-09-19T12:13:53;2.95;;;1.05;;
52047;SDS011;46904;49.438;8.752;2022-09-19T12:16:47;4.85;;;1.80;;
52047;SDS011;46904;49.438;8.752;2022-09-19T12:19:41;1.95;;;1.15;;
52047;SDS011;46904;49.438;8.752;2022-09-19T12:22:32;3.08;;;1.27;;
52047;SDS011;46904;49.438;8.752;2022-09-19T12:25:23;1.92;;;1.05;;
52047;SDS011;46904;49.438;8.752;2022-09-19T12:28:15;2.00;;;1.15;;
52047;SDS011;46904;49.438;8.752;2022-09-19T12:31:08;2.10;;;1.30;;
52047;SDS011;46904;49.438;8.752;2022-09-19T12:34:02;3.58;;;1.63;;
52047;SDS011;46904;49.438;8.752;2022-09-19T12:36:54;4.40;;;1.65;;
52047;SDS011;46904;49.438;8.752;2022-09-19T12:39:54;3.10;;;1.73;;
52047;SDS011;46904;49.438;8.752;2022-09-19T12:42:57;3.60;;;1.77;;
52047;SDS011;46904;49.438;8.752;2022-09-19T12:46:02;3.38;;;1.33;;
52047;SDS011;46904;49.438;8.752;2022-09-19T12:49:01;2.00;;;1.42;;
52047;SDS011;46904;49.438;8.752;2022-09-19T12:52:08;3.92;;;1.67;;
52047;SDS011;46904;49.438;8.752;2022-09-19T12:55:13;3.10;;;1.80;;
52047;SDS011;46904;49.438;8.752;2022-09-19T12:58:12;2.88;;;1.40;;
52047;SDS011;46904;49.438;8.752;2022-09-19T13:04:08;2.78;;;1.30;;
52047;SDS011;46904;49.438;8.752;2022-09-19T13:07:18;2.60;;;1.70;;
52047;SDS011;46904;49.438;8.752;2022-09-19T13:13:31;1.70;;;1.05;;
52047;SDS011;46904;49.438;8.752;2022-09-19T13:16:32;1.25;;;1.10;;
52047;SDS011;46904;49.438;8.752;2022-09-19T13:19:26;2.08;;;0.80;;
52047;SDS011;46904;49.438;8.752;2022-09-19T13:22:17;1.42;;;0.70;;
52047;SDS011;46904;49.438;8.752;2022-09-19T13:25:18;1.27;;;0.80;;
52047;SDS011;46904;49.438;8.752;2022-09-19T13:31:08;1.00;;;0.68;;
52047;SDS011;46904;49.438;8.752;2022-09-19T13:33:59;1.38;;;0.82;;
52047;SDS011;46904;49.438;8.752;2022-09-19T13:36:53;1.00;;;0.80;;
52047;SDS011;46904;49.438;8.752;2022-09-19T13:39:44;1.40;;;0.88;;
52047;SDS011;46904;49.438;8.752;2022-09-19T13:57:27;2.92;;;1.58;;
52047;SDS011;46904;49.438;8.752;2022-09-19T14:00:28;1.77;;;0.98;;
52047;SDS011;46904;49.438;8.752;2022-09-19T14:03:27;2.47;;;1.23;;
52047;SDS011;46904;49.438;8.752;2022-09-19T14:06:28;1.33;;;0.85;;
52047;SDS011;46904;49.438;8.752;2022-09-19T14:09:20;2.30;;;0.93;;
52047;SDS011;46904;49.438;8.752;2022-09-19T14:18:44;1.45;;;1.33;;
52047;SDS011;46904;49.438;8.752;2022-09-19T14:24:30;1.25;;;0.80;;
52047;SDS011;46904;49.438;8.752;2022-09-19T14:27:36;1.52;;;0.80;;
52047;SDS011;46904;49.438;8.752;2022-09-19T14:42:10;2.42;;;1.10;;
52047;SDS011;46904;49.438;8.752;2022-09-19T14:48:01;1.05;;;0.90;;
52047;SDS011;46904;49.438;8.752;2022-09-19T14:50:52;4.80;;;0.80;;
52047;SDS011;46904;49.438;8.752;2022-09-19T14:53:44;2.40;;;0.90;;
52047;SDS011;46904;49.438;8.752;2022-09-19T14:56:36;1.98;;;0.68;;
52047;SDS011;46904;49.438;8.752;2022-09-19T14:59:28;1.85;;;0.80;;
52047;SDS011;46904;49.438;8.752;2022-09-19T15:05:20;1.08;;;0.70;;
52047;SDS011;46904;49.438;8.752;2022-09-19T15:08:30;3.63;;;1.30;;
52047;SDS011;46904;49.438;8.752;2022-09-19T15:11:21;1.23;;;0.80;;
52047;SDS011;46904;49.438;8.752;2022-09-19T15:14:11;1.48;;;0.82;;
52047;SDS011;46904;49.438;8.752;2022-09-19T15:17:09;2.17;;;0.82;;
52047;SDS011;46904;49.438;8.752;2022-09-19T15:22:57;0.85;;;0.80;;
52047;SDS011;46904;49.438;8.752;2022-09-19T15:25:47;3.15;;;0.63;;
52047;SDS011;46904;49.438;8.752;2022-09-19T15:29:45;2.75;;;1.45;;
52047;SDS011;46904;49.438;8.752;2022-09-19T15:32:46;2.70;;;1.08;;
52047;SDS011;46904;49.438;8.752;2022-09-19T15:35:18;1.60;;;0.88;;
52047;SDS011;46904;49.438;8.752;2022-09-19T15:38:13;1.90;;;1.05;;
52047;SDS011;46904;49.438;8.752;2022-09-19T15:41:06;2.42;;;1.10;;
52047;SDS011;46904;49.438;8.752;2022-09-19T15:43:57;2.03;;;0.85;;
52047;SDS011;46904;49.438;8.752;2022-09-19T15:46:48;2.05;;;0.90;;
52047;SDS011;46904;49.438;8.752;2022-09-19T15:49:39;1.20;;;1.00;;
52047;SDS011;46904;49.438;8.752;2022-09-19T15:52:34;3.20;;;0.90;;
52047;SDS011;46904;49.438;8.752;2022-09-19T15:55:27;1.55;;;0.80;;
52047;SDS011;46904;49.438;8.752;2022-09-19T15:58:18;1.85;;;0.93;;
52047;SDS011;46904;49.438;8.752;2022-09-19T16:01:15;1.25;;;0.80;;
52047;SDS011;46904;49.438;8.752;2022-09-19T16:04:10;3.35;;;0.85;;
52047;SDS011;46904;49.438;8.752;2022-09-19T16:07:01;2.40;;;0.75;;
52047;SDS011;46904;49.438;8.752;2022-09-19T16:10:08;1.08;;;0.80;;
52047;SDS011;46904;49.438;8.752;2022-09-19T16:12:59;1.02;;;0.70;;
52047;SDS011;46904;49.438;8.752;2022-09-19T16:15:49;1.38;;;1.20;;
52047;SDS011;46904;49.438;8.752;2022-09-19T16:18:48;1.15;;;0.80;;
52047;SDS011;46904;49.438;8.752;2022-09-19T16:21:40;2.88;;;1.10;;
52047;SDS011;46904;49.438;8.752;2022-09-19T16:24:38;1.45;;;1.17;;
52047;SDS011;46904;49.438;8.752;2022-09-19T16:27:30;1.83;;;0.90;;
52047;SDS011;46904;49.438;8.752;2022-09-19T16:30:21;1.80;;;0.80;;
52047;SDS011;46904;49.438;8.752;2022-09-19T16:33:11;1.60;;;0.80;;
52047;SDS011;46904;49.438;8.752;2022-09-19T16:36:04;1.95;;;1.00;;
52047;SDS011;46904;49.438;8.752;2022-09-19T16:44:59;2.47;;;1.30;;
52047;SDS011;46904;49.438;8.752;2022-09-19T16:47:51;1.60;;;1.00;;
52047;SDS011;46904;49.438;8.752;2022-09-19T16:50:41;2.60;;;1.00;;
52047;SDS011;46904;49.438;8.752;2022-09-19T16:53:31;1.42;;;0.75;;
52047;SDS011;46904;49.438;8.752;2022-09-19T16:56:22;1.65;;;0.82;;
52047;SDS011;46904;49.438;8.752;2022-09-19T16:59:12;0.75;;;0.70;;
52047;SDS011;46904;49.438;8.752;2022-09-19T17:02:02;0.82;;;0.70;;
52047;SDS011;46904;49.438;8.752;2022-09-19T17:04:53;1.80;;;0.90;;
52047;SDS011;46904;49.438;8.752;2022-09-19T17:07:44;3.90;;;1.33;;
52047;SDS011;46904;49.438;8.752;2022-09-19T17:10:35;3.35;;;2.08;;
52047;SDS011;46904;49.438;8.752;2022-09-19T17:13:26;5.38;;;2.67;;
52047;SDS011;46904;49.438;8.752;2022-09-19T17:16:16;8.02;;;4.88;;
52047;SDS011;46904;49.438;8.752;2022-09-19T17:19:07;5.90;;;4.10;;
52047;SDS011;46904;49.438;8.752;2022-09-19T17:21:58;8.82;;;3.00;;
52047;SDS011;46904;49.438;8.752;2022-09-19T17:24:49;6.90;;;2.90;;
52047;SDS011;46904;49.438;8.752;2022-09-19T17:27:40;3.47;;;2.42;;
52047;SDS011;46904;49.438;8.752;2022-09-19T17:30:31;4.18;;;2.90;;
52047;SDS011;46904;49.438;8.752;2022-09-19T17:33:23;3.17;;;1.80;;
52047;SDS011;46904;49.438;8.752;2022-09-19T17:36:14;2.10;;;1.27;;
52047;SDS011;46904;49.438;8.752;2022-09-19T17:39:04;2.20;;;1.55;;
52047;SDS011;46904;49.438;8.752;2022-09-19T17:41:55;2.55;;;1.05;;
52047;SDS011;46904;49.438;8.752;2022-09-19T17:44:46;2.65;;;1.20;;
52047;SDS011;46904;49.438;8.752;2022-09-19T17:47:36;3.25;;;1.90;;
52047;SDS011;46904;49.438;8.752;2022-09-19T17:50:27;3.85;;;2.47;;
52047;SDS011;46904;49.438;8.752;2022-09-19T17:53:18;4.57;;;2.55;;
52047;SDS011;46904;49.438;8.752;2022-09-19T17:56:10;5.00;;;2.80;;
52047;SDS011;46904;49.438;8.752;2022-09-19T17:59:01;4.78;;;2.58;;
52047;SDS011;46904;49.438;8.752;2022-09-19T18:01:52;4.60;;;2.80;;
52047;SDS011;46904;49.438;8.752;2022-09-19T18:04:43;4.43;;;2.50;;
52047;SDS011;46904;49.438;8.752;2022-09-19T18:07:34;4.05;;;2.00;;
52047;SDS011;46904;49.438;8.752;2022-09-19T18:10:25;1.73;;;1.60;;
52047;SDS011;46904;49.438;8.752;2022-09-19T18:13:16;1.58;;;1.30;;
52047;SDS011;46904;49.438;8.752;2022-09-19T18:16:08;2.53;;;1.20;;
52047;SDS011;46904;49.438;8.752;2022-09-19T18:18:59;2.72;;;1.00;;
52047;SDS011;46904;49.438;8.752;2022-09-19T18:21:49;2.13;;;1.55;;
52047;SDS011;46904;49.438;8.752;2022-09-19T18:24:40;1.75;;;1.13;;
52047;SDS011;46904;49.438;8.752;2022-09-19T18:27:31;2.00;;;1.20;;
52047;SDS011;46904;49.438;8.752;2022-09-19T18:30:22;2.33;;;1.25;;
52047;SDS011;46904;49.438;8.752;2022-09-19T18:33:13;1.77;;;1.10;;
52047;SDS011;46904;49.438;8.752;2022-09-19T18:36:04;1.58;;;1.30;;
52047;SDS011;46904;49.438;8.752;2022-09-19T18:38:55;3.05;;;1.10;;
52047;SDS011;46904;49.438;8.752;2022-09-19T18:41:46;1.15;;;1.05;;
52047;SDS011;46904;49.438;8.752;2022-09-19T18:44:37;2.95;;;1.55;;
52047;SDS011;46904;49.438;8.752;2022-09-19T18:47:30;2.75;;;1.40;;
52047;SDS011;46904;49.438;8.752;2022-09-19T18:50:21;1.90;;;1.30;;
52047;SDS011;46904;49.438;8.752;2022-09-19T18:53:12;1.98;;;1.50;;
52047;SDS011;46904;49.438;8.752;2022-09-19T18:56:03;2.35;;;1.40;;
52047;SDS011;46904;49.438;8.752;2022-09-19T18:58:55;1.23;;;0.90;;
52047;SDS011;46904;49.438;8.752;2022-09-19T19:01:45;1.65;;;1.20;;
52047;SDS011;46904;49.438;8.752;2022-09-19T19:04:35;1.30;;;1.20;;
52047;SDS011;46904;49.438;8.752;2022-09-19T19:07:26;2.78;;;1.33;;
52047;SDS011;46904;49.438;8.752;2022-09-19T19:10:17;2.38;;;1.10;;
52047;SDS011;46904;49.438;8.752;2022-09-19T19:13:08;1.95;;;1.40;;
52047;SDS011;46904;49.438;8.752;2022-09-19T19:16:03;1.20;;;0.90;;
52047;SDS011;46904;49.438;8.752;2022-09-19T19:18:54;6.32;;;2.08;;
52047;SDS011;46904;49.438;8.752;2022-09-19T19:21:45;2.22;;;1.00;;
52047;SDS011;46904;49.438;8.752;2022-09-19T19:24:36;2.30;;;1.20;;
52047;SDS011;46904;49.438;8.752;2022-09-19T19:27:26;1.67;;;1.05;;
52047;SDS011;46904;49.438;8.752;2022-09-19T19:30:16;1.70;;;1.10;;
52047;SDS011;46904;49.438;8.752;2022-09-19T19:33:06;1.35;;;1.08;;
52047;SDS011;46904;49.438;8.752;2022-09-19T19:36:13;1.80;;;1.00;;
52047;SDS011;46904;49.438;8.752;2022-09-19T19:39:03;1.67;;;1.05;;
52047;SDS011;46904;49.438;8.752;2022-09-19T19:41:54;5.38;;;1.77;;
52047;SDS011;46904;49.438;8.752;2022-09-19T19:44:44;2.95;;;1.00;;
52047;SDS011;46904;49.438;8.752;2022-09-19T19:47:34;1.77;;;1.13;;
52047;SDS011;46904;49.438;8.752;2022-09-19T19:50:24;1.92;;;1.25;;
52047;SDS011;46904;49.438;8.752;2022-09-19T19:53:15;1.73;;;1.00;;
52047;SDS011;46904;49.438;8.752;2022-09-19T19:56:07;1.70;;;1.10;;
52047;SDS011;46904;49.438;8.752;2022-09-19T19:58:59;1.20;;;0.90;;
52047;SDS011;46904;49.438;8.752;2022-09-19T20:01:49;1.65;;;0.95;;
52047;SDS011;46904;49.438;8.752;2022-09-19T20:04:39;2.92;;;1.13;;
52047;SDS011;46904;49.438;8.752;2022-09-19T20:07:29;0.82;;;0.80;;
52047;SDS011;46904;49.438;8.752;2022-09-19T20:10:20;1.60;;;1.30;;
52047;SDS011;46904;49.438;8.752;2022-09-19T20:13:10;1.88;;;1.00;;
52047;SDS011;46904;49.438;8.752;2022-09-19T20:16:05;1.77;;;1.10;;
52047;SDS011;46904;49.438;8.752;2022-09-19T20:18:56;3.80;;;1.30;;
52047;SDS011;46904;49.438;8.752;2022-09-19T20:21:47;1.90;;;1.05;;